Time;durP1;ratioP1;P1;durP2;ratioP2;P2;SDS_P1;SDS_P2;PMS_P1;PMS_P2;Temp;Humidity;BMP_temperature;BMP_pressure;BME280_temperature;BME280_humidity;BME280_pressure;Samples;Min_cycle;Max_cycle;Signal;HPM_P1;HPM_P2
2021/08/15 00:01:50;;;;;;;5.70;5.13;;;;;;;22.31;74.88;98058.97;5010307;28;20029;-76
2021/08/15 00:04:16;;;;;;;10.82;5.97;;;;;;;22.31;75.30;98065.34;5011365;28;20045;-77
2021/08/15 00:06:41;;;;;;;8.13;5.47;;;;;;;22.19;75.27;98061.91;5011099;28;20018;-76
2021/08/15 00:09:07;;;;;;;7.78;6.10;;;;;;;21.99;75.87;98036.03;5012271;28;20395;-77
2021/08/15 00:11:33;;;;;;;10.57;6.25;;;;;;;22.15;76.57;98061.84;5010942;28;20113;-77
2021/08/15 00:13:59;;;;;;;8.60;5.93;;;;;;;21.94;77.19;98049.47;5010854;28;20018;-76
2021/08/15 00:16:25;;;;;;;8.93;6.82;;;;;;;21.78;77.42;98049.50;5011813;28;20479;-77
2021/08/15 00:18:50;;;;;;;8.73;5.93;;;;;;;21.65;77.63;98051.63;5010583;28;20036;-78
2021/08/15 00:21:16;;;;;;;9.13;5.65;;;;;;;21.51;77.60;98045.78;5011019;28;20042;-77
2021/08/15 00:23:41;;;;;;;9.00;5.63;;;;;;;21.49;77.47;98047.31;5011833;28;20022;-76
2021/08/15 00:26:07;;;;;;;7.75;6.22;;;;;;;21.62;77.44;98055.16;5010136;28;20046;-79
2021/08/15 00:28:33;;;;;;;8.20;5.20;;;;;;;21.78;76.71;98057.88;5010072;28;20064;-78
2021/08/15 00:30:58;;;;;;;11.73;6.15;;;;;;;21.63;76.92;98051.19;5011759;28;20034;-77
2021/08/15 00:33:24;;;;;;;9.50;5.40;;;;;;;21.51;77.85;98043.00;5010164;28;20026;-77
2021/08/15 00:35:49;;;;;;;6.95;5.25;;;;;;;21.53;77.08;98028.69;5009761;28;20061;-79
2021/08/15 00:38:15;;;;;;;12.43;6.05;;;;;;;21.47;77.64;98049.63;5009976;28;20145;-79
2021/08/15 00:40:40;;;;;;;7.85;5.38;;;;;;;21.38;77.91;98041.50;5010945;28;20036;-77
2021/08/15 00:43:07;;;;;;;8.23;5.55;;;;;;;21.32;78.13;98054.91;5010989;28;20058;-79
2021/08/15 00:45:32;;;;;;;8.60;5.70;;;;;;;21.31;78.14;98052.47;5010956;28;20052;-77
2021/08/15 00:48:09;;;;;;;8.43;6.03;;;;;;;21.42;78.28;98045.19;5010138;28;20479;-76
2021/08/15 00:50:37;;;;;;;9.35;5.45;;;;;;;21.26;78.84;98039.66;5009970;28;20058;-77
2021/08/15 00:53:02;;;;;;;8.52;5.63;;;;;;;21.23;78.75;98028.44;5010387;28;20029;-75
2021/08/15 00:55:28;;;;;;;10.75;5.80;;;;;;;21.43;78.36;98043.19;5015269;28;20021;-77
2021/08/15 00:57:54;;;;;;;9.85;6.05;;;;;;;21.47;78.44;98044.06;5017442;28;20038;-77
2021/08/15 01:00:19;;;;;;;8.80;6.50;;;;;;;21.43;79.10;98051.53;5011759;28;20056;-75
2021/08/15 01:02:48;;;;;;;9.75;6.22;;;;;;;21.52;78.86;98050.16;5011264;28;20363;-75
2021/08/15 01:05:15;;;;;;;11.23;5.22;;;;;;;21.52;79.21;98044.59;5011311;28;20046;-76
2021/08/15 01:07:42;;;;;;;9.88;7.30;;;;;;;21.28;80.63;98034.53;5011105;28;20034;-77
2021/08/15 01:10:10;;;;;;;8.07;6.20;;;;;;;21.17;81.93;98044.63;5011183;28;20419;-77
2021/08/15 01:12:36;;;;;;;9.13;6.75;;;;;;;20.92;83.86;98047.94;5010899;28;20033;-77
2021/08/15 01:15:02;;;;;;;9.32;6.22;;;;;;;21.11;83.47;98056.41;5009572;28;20705;-75
2021/08/15 01:17:29;;;;;;;22.75;6.85;;;;;;;21.40;81.92;98052.25;5011018;28;20429;-77
2021/08/15 01:19:56;;;;;;;7.10;6.35;;;;;;;21.23;82.95;98048.75;5011010;28;20506;-78
2021/08/15 01:22:26;;;;;;;7.25;5.75;;;;;;;21.28;82.56;98051.22;5009460;28;20038;-76
2021/08/15 01:24:52;;;;;;;8.15;6.25;;;;;;;21.32;82.25;98051.31;5009658;28;20018;-77
2021/08/15 01:27:22;;;;;;;7.53;6.72;;;;;;;21.16;82.74;98040.22;5010793;28;20053;-77
2021/08/15 01:29:48;;;;;;;10.25;6.25;;;;;;;21.17;83.18;98044.63;5009718;28;20060;-77
2021/08/15 01:32:18;;;;;;;7.28;6.13;;;;;;;21.28;82.45;98047.63;5010598;28;20162;-78
2021/08/15 01:34:44;;;;;;;8.15;5.95;;;;;;;21.27;82.60;98049.59;5009600;28;20030;-78
2021/08/15 01:37:11;;;;;;;13.88;8.52;;;;;;;21.16;82.64;98031.88;5009519;28;20021;-77
2021/08/15 01:39:43;;;;;;;10.38;5.88;;;;;;;21.48;81.60;98045.69;5009216;28;20036;-78
2021/08/15 01:42:09;;;;;;;7.63;5.57;;;;;;;21.50;81.33;98046.94;5009230;28;20530;-77
2021/08/15 01:44:34;;;;;;;11.60;6.82;;;;;;;21.39;81.90;98037.56;5010333;28;20120;-78
2021/08/15 01:47:01;;;;;;;6.75;5.53;;;;;;;21.43;81.60;98044.00;5010639;28;20121;-78
2021/08/15 01:49:27;;;;;;;12.68;6.25;;;;;;;21.40;81.80;98039.16;5010670;28;20040;-78
2021/08/15 01:51:52;;;;;;;8.70;6.60;;;;;;;21.20;82.39;98027.19;5008662;28;20033;-78
2021/08/15 01:54:18;;;;;;;6.65;5.95;;;;;;;21.29;82.53;98035.34;5008151;28;20030;-78
2021/08/15 01:56:43;;;;;;;7.63;6.45;;;;;;;21.38;81.59;98044.28;5010874;28;20037;-75
2021/08/15 01:59:08;;;;;;;7.95;5.32;;;;;;;20.91;84.20;98030.44;5010564;28;20033;-77
2021/08/15 02:01:34;;;;;;;12.00;6.53;;;;;;;20.75;85.81;98038.00;5009040;28;20033;-78
2021/08/15 02:03:59;;;;;;;7.70;6.35;;;;;;;21.00;84.81;98042.19;5009957;28;20042;-78
2021/08/15 02:06:25;;;;;;;8.32;6.70;;;;;;;20.83;85.80;98037.03;5010198;28;20026;-78
2021/08/15 02:08:51;;;;;;;12.93;6.30;;;;;;;20.82;85.74;98022.31;5009013;28;20057;-76
2021/08/15 02:11:18;;;;;;;7.88;5.75;;;;;;;21.10;84.23;98035.28;5010438;28;20577;-77
2021/08/15 02:13:44;;;;;;;8.88;6.78;;;;;;;21.06;84.47;98037.16;5009126;28;20109;-78
2021/08/15 02:16:09;;;;;;;7.25;6.45;;;;;;;20.81;85.78;98031.81;5009003;28;20026;-76
2021/08/15 02:18:35;;;;;;;15.05;7.28;;;;;;;20.76;85.92;98029.31;5010584;28;20029;-79
2021/08/15 02:21:00;;;;;;;9.23;6.47;;;;;;;20.77;86.06;98027.31;5010031;28;20033;-77
2021/08/15 02:23:26;;;;;;;10.15;6.88;;;;;;;20.57;87.13;98029.22;5010071;28;20034;-78
2021/08/15 02:25:53;;;;;;;9.00;6.25;;;;;;;20.38;87.50;98008.84;5010126;28;20093;-77
2021/08/15 02:28:18;;;;;;;9.55;7.03;;;;;;;20.38;87.88;98011.63;5010181;28;20390;-75
2021/08/15 02:30:44;;;;;;;7.90;5.57;;;;;;;20.53;87.11;98014.41;5010755;28;20026;-78
2021/08/15 02:33:09;;;;;;;10.82;6.43;;;;;;;20.57;86.58;98020.88;5010229;28;20022;-76
2021/08/15 02:35:34;;;;;;;7.97;6.35;;;;;;;20.82;85.26;98021.50;5009907;28;20033;-76
2021/08/15 02:38:00;;;;;;;6.80;5.68;;;;;;;20.66;85.70;98023.47;5009958;28;20026;-77
2021/08/15 02:40:26;;;;;;;8.85;5.55;;;;;;;20.39;87.08;98016.84;5010031;28;20007;-75
2021/08/15 02:42:52;;;;;;;9.30;6.50;;;;;;;20.46;87.38;98018.97;5009910;28;20056;-77
2021/08/15 02:45:20;;;;;;;10.00;6.38;;;;;;;20.35;87.50;98015.13;5013650;28;20026;-79
2021/08/15 02:47:47;;;;;;;10.63;6.78;;;;;;;20.28;87.73;98008.22;5013872;28;20026;-75
2021/08/15 02:50:13;;;;;;;9.93;6.38;;;;;;;20.63;86.32;98007.50;5013759;28;20036;-79
2021/08/15 02:52:39;;;;;;;11.05;8.32;;;;;;;20.43;87.12;98005.81;5013170;28;20068;-77
2021/08/15 02:55:06;;;;;;;12.38;9.65;;;;;;;20.30;87.93;98002.31;5012374;28;20124;-75
2021/08/15 02:57:32;;;;;;;14.68;7.47;;;;;;;20.47;87.58;98004.75;5013353;28;20030;-76
2021/08/15 02:59:57;;;;;;;10.23;7.07;;;;;;;20.40;87.09;97998.19;5007597;28;20168;-77
2021/08/15 03:02:23;;;;;;;10.90;7.95;;;;;;;20.30;87.56;98000.34;5002521;28;20131;-76
2021/08/15 03:04:49;;;;;;;11.25;8.13;;;;;;;20.15;88.33;98003.06;4992031;28;20158;-78
2021/08/15 03:07:15;;;;;;;9.88;7.93;;;;;;;20.08;88.68;97992.56;4992221;28;20387;-78
2021/08/15 03:09:42;;;;;;;17.08;8.07;;;;;;;20.09;88.79;98004.50;4993766;28;20041;-76
2021/08/15 03:12:07;;;;;;;14.38;7.53;;;;;;;19.95;89.03;97993.03;4995508;28;20100;-79
2021/08/15 03:14:33;;;;;;;9.80;6.53;;;;;;;19.87;89.73;97991.19;4995970;28;20050;-76
2021/08/15 03:16:58;;;;;;;8.23;6.60;;;;;;;19.98;89.76;98001.44;4992775;28;20031;-76
2021/08/15 03:19:23;;;;;;;10.77;7.45;;;;;;;20.06;88.62;98003.25;5006342;28;20026;-76
2021/08/15 03:21:49;;;;;;;7.88;6.75;;;;;;;19.76;89.97;97999.25;5012749;28;20494;-76
2021/08/15 03:24:15;;;;;;;10.32;6.47;;;;;;;19.79;90.62;98004.09;5011318;28;20026;-77
2021/08/15 03:26:44;;;;;;;11.05;7.50;;;;;;;19.86;89.94;98000.72;5011469;28;20438;-79
2021/08/15 03:29:17;;;;;;;9.68;6.63;;;;;;;19.91;89.79;98006.81;5011270;28;20032;-79
2021/08/15 03:31:44;;;;;;;10.30;6.85;;;;;;;19.66;91.05;98006.13;5011076;28;20026;-75
2021/08/15 03:34:10;;;;;;;10.73;7.13;;;;;;;19.66;91.31;98000.56;5011210;28;20493;-77
2021/08/15 03:36:36;;;;;;;7.65;6.35;;;;;;;19.83;90.27;97999.41;5012350;28;20078;-77
2021/08/15 03:39:02;;;;;;;8.48;6.82;;;;;;;19.60;91.30;97999.19;5011185;28;20022;-78
2021/08/15 03:41:28;;;;;;;13.25;6.82;;;;;;;19.83;90.73;97996.66;5012010;28;20088;-78
2021/08/15 03:43:53;;;;;;;10.95;6.35;;;;;;;19.99;89.32;97993.91;5010887;28;20108;-76
2021/08/15 03:46:19;;;;;;;9.05;6.93;;;;;;;19.93;89.67;97996.13;5010923;28;20487;-77
2021/08/15 03:48:44;;;;;;;9.88;7.70;;;;;;;19.78;91.25;98000.50;5011916;28;20042;-76
2021/08/15 03:51:10;;;;;;;13.93;7.13;;;;;;;19.61;92.57;97999.97;5011471;28;20030;-77
2021/08/15 03:53:36;;;;;;;15.35;7.55;;;;;;;19.46;94.13;97998.78;4994585;28;20034;-76
2021/08/15 03:56:01;;;;;;;8.65;6.60;;;;;;;19.50;94.31;98009.97;5010813;28;20034;-77
2021/08/15 03:58:28;;;;;;;11.05;7.15;;;;;;;19.75;92.64;98011.50;5010444;28;20030;-78
2021/08/15 04:00:54;;;;;;;11.18;7.25;;;;;;;19.76;92.31;98007.56;5011073;28;20060;-77
2021/08/15 04:03:19;;;;;;;10.35;7.20;;;;;;;19.63;93.12;97997.69;5010958;28;20479;-79
2021/08/15 04:05:45;;;;;;;9.15;6.63;;;;;;;19.81;92.07;98000.94;5010783;28;20022;-78
2021/08/15 04:08:11;;;;;;;9.20;7.55;;;;;;;19.98;90.89;97998.66;5010442;28;20633;-78
2021/08/15 04:10:36;;;;;;;9.68;7.70;;;;;;;19.85;91.92;98008.22;5010678;28;20382;-76
2021/08/15 04:13:02;;;;;;;9.75;8.13;;;;;;;19.66;92.93;97994.19;5010829;28;20025;-76
2021/08/15 04:15:28;;;;;;;17.40;9.18;;;;;;;19.51;94.60;97997.72;5010543;28;20058;-76
2021/08/15 04:17:54;;;;;;;14.85;7.32;;;;;;;19.72;93.59;97996.38;5011696;28;20054;-76
2021/08/15 04:20:20;;;;;;;14.07;8.70;;;;;;;19.92;91.97;98000.09;5012165;28;20041;-79
2021/08/15 04:22:45;;;;;;;11.32;8.02;;;;;;;20.10;91.02;98001.38;5010344;28;20573;-76
2021/08/15 04:25:11;;;;;;;9.80;7.72;;;;;;;19.83;92.71;97998.63;5011916;28;20174;-77
2021/08/15 04:27:37;;;;;;;9.27;8.07;;;;;;;19.81;93.00;97998.97;5010328;28;20030;-79
2021/08/15 04:30:05;;;;;;;9.20;7.40;;;;;;;19.90;92.96;97996.84;5011988;28;20032;-78
2021/08/15 04:32:30;;;;;;;10.77;7.80;;;;;;;20.12;91.57;97996.25;5010064;28;20036;-79
2021/08/15 04:34:55;;;;;;;10.45;8.02;;;;;;;20.11;91.89;97994.63;5010018;28;20034;-76
2021/08/15 04:37:24;;;;;;;9.30;7.47;;;;;;;20.06;92.14;98003.25;5009812;28;20049;-79
2021/08/15 04:39:49;;;;;;;10.05;7.65;;;;;;;20.57;89.04;98003.41;5010477;28;20036;-76
2021/08/15 04:42:15;;;;;;;9.27;7.45;;;;;;;20.46;89.68;98005.09;5010092;28;20054;-76
2021/08/15 04:44:40;;;;;;;12.70;7.88;;;;;;;20.19;91.14;97993.69;5009806;28;20371;-79
2021/08/15 04:47:06;;;;;;;14.10;8.43;;;;;;;20.43;90.33;98003.03;5009637;28;20478;-79
2021/08/15 04:49:33;;;;;;;11.30;7.95;;;;;;;20.47;89.39;97992.81;5011071;28;20040;-78
2021/08/15 04:51:58;;;;;;;10.70;8.05;;;;;;;20.68;88.61;98004.44;5011062;28;20034;-77
2021/08/15 04:54:27;;;;;;;13.20;8.98;;;;;;;20.83;87.83;98007.22;5011754;28;20549;-78
2021/08/15 04:56:56;;;;;;;9.25;7.43;;;;;;;20.86;87.08;97999.34;5011444;28;20022;-75
2021/08/15 04:59:22;;;;;;;11.20;8.95;;;;;;;20.63;87.87;98001.94;5011475;28;20029;-77
2021/08/15 05:01:48;;;;;;;12.00;8.82;;;;;;;20.50;89.25;98000.44;5010021;28;20026;-77
2021/08/15 05:04:13;;;;;;;8.05;7.15;;;;;;;20.87;87.59;98004.53;5010065;28;20534;-76
2021/08/15 05:06:39;;;;;;;12.13;8.65;;;;;;;21.14;86.27;98008.38;5009054;28;20453;-78
2021/08/15 05:09:05;;;;;;;11.35;9.05;;;;;;;21.16;85.82;98015.19;5011068;28;20395;-77
2021/08/15 05:11:31;;;;;;;12.20;9.95;;;;;;;21.16;85.73;98009.59;5009781;28;20022;-76
2021/08/15 05:13:56;;;;;;;10.25;8.10;;;;;;;21.28;84.99;98006.69;5010707;28;20022;-76
2021/08/15 05:16:23;;;;;;;11.68;8.98;;;;;;;21.45;84.31;98011.06;5009669;28;20018;-76
2021/08/15 05:18:51;;;;;;;13.63;7.80;;;;;;;21.49;83.98;98009.13;5009382;28;20026;-77
2021/08/15 05:21:16;;;;;;;13.73;9.38;;;;;;;21.49;83.95;98017.47;5009611;28;20403;-75
2021/08/15 05:23:42;;;;;;;12.75;9.30;;;;;;;21.77;82.86;98022.84;5009751;28;20026;-79
2021/08/15 05:26:07;;;;;;;10.18;8.75;;;;;;;21.91;80.90;98000.06;5008788;28;20022;-78
2021/08/15 05:28:34;;;;;;;7.82;6.88;;;;;;;21.47;82.84;98008.69;4998272;28;20064;-76
2021/08/15 05:30:59;;;;;;;10.38;6.57;;;;;;;21.69;81.83;98019.09;5016086;28;20037;-78
2021/08/15 05:33:25;;;;;;;13.00;8.13;;;;;;;21.61;82.17;98020.16;5001670;28;20484;-77
2021/08/15 05:35:50;;;;;;;9.60;6.47;;;;;;;21.68;81.92;98022.25;4989794;28;20100;-77
2021/08/15 05:38:15;;;;;;;11.48;7.15;;;;;;;21.77;80.78;98017.28;4990849;28;20045;-78
2021/08/15 05:40:41;;;;;;;10.52;7.82;;;;;;;21.88;80.65;98021.06;4990792;28;20022;-77
2021/08/15 05:43:06;;;;;;;9.75;7.47;;;;;;;21.67;82.06;98031.78;4989470;28;20043;-77
2021/08/15 05:45:32;;;;;;;11.40;9.05;;;;;;;21.55;82.14;98018.00;5006116;28;20030;-77
2021/08/15 05:47:57;;;;;;;9.32;7.63;;;;;;;21.72;81.91;98032.31;5005755;28;20113;-75
2021/08/15 05:50:23;;;;;;;11.32;7.80;;;;;;;22.27;81.42;98033.03;4991718;28;20053;-76
2021/08/15 05:52:48;;;;;;;10.20;7.97;;;;;;;22.45;77.88;98024.97;4990943;28;20048;-76
2021/08/15 05:55:14;;;;;;;12.25;6.88;;;;;;;22.90;75.98;98024.94;4990001;28;20050;-75
2021/08/15 05:57:40;;;;;;;8.35;6.78;;;;;;;23.12;75.01;98031.69;4990829;28;20144;-76
2021/08/15 06:00:07;;;;;;;8.18;7.38;;;;;;;23.37;73.51;98044.00;4991429;28;20094;-75
2021/08/15 06:02:33;;;;;;;9.75;7.70;;;;;;;23.49;72.86;98032.66;4990986;28;20045;-76
2021/08/15 06:04:58;;;;;;;12.07;7.57;;;;;;;23.96;70.95;98038.44;4990976;28;20463;-76
2021/08/15 06:07:24;;;;;;;14.27;7.22;;;;;;;24.18;70.35;98027.56;4990924;28;20432;-77
2021/08/15 06:09:49;;;;;;;11.77;7.97;;;;;;;24.12;69.88;98029.88;4990726;28;20077;-73
2021/08/15 06:12:15;;;;;;;17.15;8.45;;;;;;;23.60;71.45;98018.81;4989599;28;20033;-73
2021/08/15 06:14:40;;;;;;;8.82;7.25;;;;;;;23.69;71.97;98010.97;4990764;28;21863;-75
2021/08/15 06:17:06;;;;;;;11.18;8.80;;;;;;;23.71;71.51;98019.78;4990503;28;20388;-74
2021/08/15 06:19:32;;;;;;;9.68;7.82;;;;;;;23.54;71.84;98017.53;4993633;28;20026;-74
2021/08/15 06:21:58;;;;;;;12.90;7.95;;;;;;;23.63;71.63;98010.50;5003059;28;20076;-75
2021/08/15 06:24:24;;;;;;;10.07;7.40;;;;;;;23.56;72.09;98015.16;5013663;28;20105;-75
2021/08/15 06:26:49;;;;;;;11.30;8.40;;;;;;;23.64;71.63;98017.69;5013782;28;20112;-73
2021/08/15 06:29:14;;;;;;;10.65;8.77;;;;;;;23.85;70.85;98017.16;5013241;28;20056;-74
2021/08/15 06:31:40;;;;;;;14.85;7.88;;;;;;;24.03;70.21;98020.94;5013932;28;20088;-76
2021/08/15 06:34:05;;;;;;;10.20;8.15;;;;;;;24.47;67.93;98016.25;5013579;28;20030;-75
2021/08/15 06:36:30;;;;;;;33.50;27.42;;;;;;;24.71;67.28;98016.88;5014119;28;20022;-78
2021/08/15 06:38:56;;;;;;;15.38;11.63;;;;;;;25.26;65.11;98015.72;5014060;28;20036;-74
2021/08/15 06:41:21;;;;;;;10.02;8.02;;;;;;;25.52;63.48;98018.31;5013760;28;20053;-77
2021/08/15 06:43:47;;;;;;;8.00;7.28;;;;;;;25.44;63.29;98013.00;5013659;28;20034;-75
2021/08/15 06:46:14;;;;;;;12.25;7.38;;;;;;;25.49;63.09;98018.28;5009456;28;20029;-76
2021/08/15 06:48:40;;;;;;;11.88;7.78;;;;;;;25.34;63.52;98014.56;5014402;28;20395;-74
2021/08/15 06:51:06;;;;;;;9.93;7.78;;;;;;;25.43;63.68;98015.03;5014487;28;20030;-76
2021/08/15 06:53:35;;;;;;;8.13;7.32;;;;;;;25.14;63.94;98012.44;5014086;28;20383;-75
2021/08/15 06:56:01;;;;;;;8.88;7.47;;;;;;;25.09;63.84;98008.00;5017323;28;20030;-75
2021/08/15 06:58:27;;;;;;;9.25;6.90;;;;;;;25.21;63.83;98013.28;5007972;28;20014;-77
2021/08/15 07:00:53;;;;;;;9.05;7.75;;;;;;;25.65;62.44;98017.97;5014163;28;20435;-74
2021/08/15 07:03:19;;;;;;;12.55;7.55;;;;;;;25.29;63.39;98014.94;5011807;28;20386;-74
2021/08/15 07:05:46;;;;;;;8.57;6.50;;;;;;;25.56;63.06;98007.91;4995879;28;20022;-74
2021/08/15 07:08:12;;;;;;;13.55;7.95;;;;;;;25.68;62.28;98014.38;4994928;28;20037;-73
2021/08/15 07:10:37;;;;;;;9.05;6.93;;;;;;;25.66;62.39;98005.53;4993856;28;20018;-75
2021/08/15 07:13:07;;;;;;;11.30;7.47;;;;;;;26.06;61.12;98013.72;4995876;28;20494;-72
2021/08/15 07:15:32;;;;;;;9.30;6.93;;;;;;;26.29;59.87;98005.78;5010602;28;20027;-73
2021/08/15 07:17:58;;;;;;;7.72;6.35;;;;;;;26.20;59.80;98012.97;5011771;28;20364;-74
2021/08/15 07:20:24;;;;;;;10.38;7.63;;;;;;;26.16;60.05;98007.34;5013289;28;20104;-78
2021/08/15 07:22:51;;;;;;;11.27;7.30;;;;;;;26.45;59.33;98008.22;5006203;28;20032;-77
2021/08/15 07:25:16;;;;;;;10.65;7.25;;;;;;;26.76;57.40;98007.44;5013074;28;20026;-73
2021/08/15 07:27:45;;;;;;;10.77;7.40;;;;;;;26.55;58.40;98002.63;5010498;28;20036;-74
2021/08/15 07:30:13;;;;;;;10.13;6.72;;;;;;;26.22;59.14;98005.78;4992248;28;20030;-74
2021/08/15 07:32:50;;;;;;;7.82;6.30;;;;;;;26.99;57.12;97993.03;4995995;28;20037;-73
2021/08/15 07:35:16;;;;;;;7.90;6.72;;;;;;;27.18;56.04;98001.03;5012074;28;20480;-75
2021/08/15 07:37:41;;;;;;;9.50;6.95;;;;;;;27.54;55.58;98002.56;5014205;28;20084;-74
2021/08/15 07:40:07;;;;;;;8.52;6.32;;;;;;;27.43;54.64;98001.00;5012187;28;20018;-74
2021/08/15 07:42:33;;;;;;;8.32;6.88;;;;;;;27.35;54.54;98000.19;5012104;28;20046;-73
2021/08/15 07:44:58;;;;;;;10.73;5.82;;;;;;;27.45;53.46;98007.03;5010818;28;20513;-75
2021/08/15 07:47:23;;;;;;;8.23;5.72;;;;;;;27.71;52.43;98000.91;5012509;28;20395;-74
2021/08/15 07:49:49;;;;;;;10.90;4.97;;;;;;;28.49;50.33;98000.53;5020348;28;20076;-76
2021/08/15 07:52:14;;;;;;;14.88;6.28;;;;;;;28.30;50.86;98010.31;5015022;28;20044;-73
2021/08/15 07:54:39;;;;;;;10.35;6.07;;;;;;;28.97;50.11;98003.41;5009759;28;20025;-80
2021/08/15 07:57:05;;;;;;;17.60;6.65;;;;;;;28.96;50.47;98002.59;5007431;28;20113;-73
2021/08/15 07:59:30;;;;;;;8.38;5.85;;;;;;;28.91;50.18;97999.44;5010080;28;20014;-74
2021/08/15 08:01:56;;;;;;;6.45;5.85;;;;;;;29.64;49.06;98003.53;5010592;28;20030;-74
2021/08/15 08:04:21;;;;;;;6.90;5.85;;;;;;;29.88;47.74;98001.69;5009794;28;20045;-75
2021/08/15 08:06:48;;;;;;;18.38;6.65;;;;;;;30.23;47.54;98006.84;5009713;28;20438;-74
2021/08/15 08:09:13;;;;;;;15.55;13.68;;;;;;;30.67;45.47;98005.81;5009747;28;20022;-84
2021/08/15 08:11:39;;;;;;;8.48;6.60;;;;;;;29.44;47.84;97994.13;5009799;28;20082;-76
2021/08/15 08:14:04;;;;;;;17.73;5.85;;;;;;;30.45;46.15;97996.06;5008564;28;20436;-78
2021/08/15 08:16:33;;;;;;;15.15;6.30;;;;;;;30.00;46.70;97997.50;5009569;28;20109;-76
2021/08/15 08:18:58;;;;;;;9.60;6.60;;;;;;;30.56;45.79;97996.72;5008396;28;20109;-74
2021/08/15 08:21:25;;;;;;;7.05;5.20;;;;;;;31.33;43.84;97993.03;5009998;28;20691;-74
2021/08/15 08:23:50;;;;;;;7.07;5.85;;;;;;;31.74;42.34;97985.75;5005851;28;20030;-74
2021/08/15 08:26:16;;;;;;;7.00;5.95;;;;;;;32.37;41.09;97985.63;5009453;28;20045;-73
2021/08/15 08:28:41;;;;;;;7.55;6.28;;;;;;;31.19;43.58;97992.06;5009674;28;20153;-73
2021/08/15 08:31:06;;;;;;;11.02;6.15;;;;;;;31.62;43.63;97985.59;5008065;28;20034;-75
2021/08/15 08:33:32;;;;;;;10.38;6.22;;;;;;;30.95;44.15;97981.19;5009230;28;20406;-72
2021/08/15 08:35:57;;;;;;;9.55;6.57;;;;;;;31.02;45.14;97987.50;5009543;28;20022;-77
2021/08/15 08:38:23;;;;;;;6.93;5.40;;;;;;;31.61;43.21;97975.50;5014051;28;20012;-84
2021/08/15 08:40:49;;;;;;;7.60;5.43;;;;;;;32.44;41.52;97982.66;5014922;28;20098;-90
2021/08/15 08:43:14;;;;;;;7.07;5.78;;;;;;;32.69;40.97;97982.88;5014776;28;20046;-91
2021/08/15 08:46:25;;;;;;;6.82;5.93;;;;;;;32.45;41.40;97978.59;5013387;28;20026;-87
2021/08/15 08:48:53;;;;;;;10.55;6.38;;;;;;;31.47;43.12;97970.91;5012869;28;20732;-91
2021/08/15 08:51:23;;;;;;;9.73;7.55;;;;;;;30.49;45.28;97974.22;5012193;28;20126;-89
2021/08/15 08:53:50;;;;;;;7.43;6.38;;;;;;;30.72;44.82;97967.81;5018790;28;20022;-80
2021/08/15 08:56:16;;;;;;;9.07;6.05;;;;;;;31.07;44.50;97970.06;5012946;28;20026;-84
2021/08/15 08:58:42;;;;;;;9.52;6.20;;;;;;;30.52;44.50;97964.91;5005480;28;20495;-86
2021/08/15 09:01:11;;;;;;;14.05;7.00;;;;;;;30.25;45.71;97966.91;4991674;28;20476;-81
2021/08/15 09:03:36;;;;;;;7.10;6.40;;;;;;;30.97;45.12;97971.03;5005548;28;20032;-81
2021/08/15 09:06:03;;;;;;;6.45;5.78;;;;;;;31.73;44.18;97966.41;5012338;28;20428;-86
2021/08/15 09:08:33;;;;;;;10.55;6.82;;;;;;;31.08;44.77;97965.19;5010260;28;20033;-80
2021/08/15 09:11:16;;;;;;;7.35;6.60;;;;;;;31.69;43.32;97955.16;5013244;28;20018;-85
2021/08/15 09:13:44;;;;;;;7.03;5.82;;;;;;;31.97;41.67;97953.75;5013641;28;20037;-83
2021/08/15 09:16:09;;;;;;;7.05;5.82;;;;;;;32.17;42.05;97963.00;5003758;28;20050;-86
2021/08/15 09:18:35;;;;;;;12.13;6.25;;;;;;;32.02;41.45;97955.25;4991266;28;20034;-79
2021/08/15 09:21:00;;;;;;;8.90;5.75;;;;;;;32.30;40.71;97949.78;4992633;28;20037;-78
2021/08/15 09:23:27;;;;;;;8.35;5.88;;;;;;;32.25;41.04;97953.13;5007527;28;20037;-79
2021/08/15 09:26:21;;;;;;;5.90;5.28;;;;;;;31.66;42.68;97953.19;5007167;28;20574;-78
2021/08/15 09:28:50;;;;;;;7.90;5.25;;;;;;;31.23;42.63;97938.28;5007468;28;20041;-78
2021/08/15 09:31:32;;;;;;;8.57;5.50;;;;;;;31.88;42.20;97938.59;5010684;28;20099;-80
2021/08/15 09:34:00;;;;;;;6.07;5.03;;;;;;;32.76;40.31;97937.38;5006806;28;20038;-79
2021/08/15 09:36:29;;;;;;;7.32;6.63;;;;;;;32.23;40.87;97926.50;5007877;28;20029;-79
2021/08/15 09:39:00;;;;;;;9.98;5.45;;;;;;;32.17;41.56;97914.88;5007743;28;20101;-78
2021/08/15 09:41:28;;;;;;;7.22;5.05;;;;;;;31.99;41.57;97922.94;5008116;28;20064;-79
2021/08/15 09:44:26;;;;;;;5.65;5.15;;;;;;;32.09;41.61;97918.31;5009571;28;20030;-79
2021/08/15 09:47:04;;;;;;;9.30;5.50;;;;;;;32.17;40.37;97916.94;5008178;28;20038;-78
2021/08/15 09:49:42;;;;;;;7.13;4.82;;;;;;;32.42;40.42;97905.81;5007607;28;20030;-80
2021/08/15 09:52:11;;;;;;;5.55;4.45;;;;;;;32.51;40.03;97908.81;5011403;28;20578;-78
2021/08/15 09:54:38;;;;;;;7.80;4.90;;;;;;;32.33;40.27;97911.25;5009833;28;20499;-79
2021/08/15 09:57:06;;;;;;;8.57;4.57;;;;;;;32.83;39.73;97903.13;4995022;28;20030;-80
2021/08/15 09:59:34;;;;;;;7.38;4.75;;;;;;;33.19;38.34;97893.72;4996002;28;20026;-77
2021/08/15 10:02:00;;;;;;;7.40;5.18;;;;;;;32.53;40.09;97891.34;5015998;28;20069;-78
2021/08/15 10:04:26;;;;;;;6.80;4.97;;;;;;;32.71;40.00;97883.22;5013060;28;20064;-77
2021/08/15 10:06:54;;;;;;;10.85;5.22;;;;;;;32.43;40.61;97881.88;5011748;28;20046;-79
2021/08/15 10:09:20;;;;;;;6.75;5.63;;;;;;;31.92;41.38;97880.63;5025698;28;20025;-78
2021/08/15 10:11:46;;;;;;;4.88;4.38;;;;;;;32.15;41.20;97880.53;5026140;28;20486;-78
2021/08/15 10:14:13;;;;;;;6.90;5.40;;;;;;;32.33;40.20;97871.59;5012503;28;20037;-80
2021/08/15 10:17:01;;;;;;;6.28;5.10;;;;;;;32.78;40.01;97877.38;5013148;28;20041;-79
2021/08/15 10:19:39;;;;;;;8.73;4.68;;;;;;;32.83;39.34;97874.00;5012260;28;20022;-79
2021/08/15 10:22:06;;;;;;;7.07;5.50;;;;;;;33.37;39.72;97872.09;5006202;28;20560;-78
2021/08/15 10:24:40;;;;;;;5.80;5.03;;;;;;;32.79;40.06;97862.78;5011819;28;20038;-78
2021/08/15 10:27:05;;;;;;;6.75;5.38;;;;;;;33.37;39.88;97851.44;5010110;28;20037;-80
2021/08/15 10:29:44;;;;;;;6.90;5.13;;;;;;;33.86;38.94;97858.47;5012805;28;20021;-78
2021/08/15 10:32:20;;;;;;;8.70;5.78;;;;;;;34.09;38.56;97862.25;5009667;28;20022;-78
2021/08/15 10:34:51;;;;;;;5.90;5.30;;;;;;;33.43;39.60;97858.16;5007695;28;20080;-78
2021/08/15 10:37:26;;;;;;;10.80;5.15;;;;;;;32.86;40.98;97848.38;5011104;28;20072;-78
2021/08/15 10:40:02;;;;;;;8.60;5.97;;;;;;;32.91;41.47;97852.72;5009644;28;20030;-77
2021/08/15 10:42:43;;;;;;;9.75;5.85;;;;;;;33.31;40.34;97839.06;5009609;28;20084;-77
2021/08/15 10:45:12;;;;;;;10.20;6.00;;;;;;;33.35;40.80;97825.56;5009158;28;20478;-82
2021/08/15 10:47:38;;;;;;;22.90;19.48;;;;;;;33.34;40.43;97824.78;5012143;28;20049;-78
2021/08/15 10:50:07;;;;;;;10.38;7.22;;;;;;;32.84;41.33;97816.88;5012532;28;20812;-81
2021/08/15 10:52:42;;;;;;;10.93;8.77;;;;;;;32.75;42.02;97815.91;5014311;28;20072;-78
2021/08/15 10:55:16;;;;;;;6.38;5.75;;;;;;;33.53;40.57;97823.00;5009667;28;20037;-78
2021/08/15 10:57:49;;;;;;;10.23;5.57;;;;;;;33.89;39.34;97814.22;5010102;28;20022;-78
2021/08/15 11:00:30;;;;;;;6.93;5.40;;;;;;;34.06;39.14;97807.16;5011985;28;20268;-80
2021/08/15 11:03:00;;;;;;;7.15;5.20;;;;;;;34.93;38.26;97807.44;5010222;28;20100;-76
2021/08/15 11:05:36;;;;;;;6.22;5.00;;;;;;;35.55;37.31;97791.31;4992291;28;20040;-79
2021/08/15 11:08:03;;;;;;;7.78;5.75;;;;;;;35.27;36.98;97787.50;5021562;28;20033;-78
2021/08/15 11:11:05;;;;;;;6.68;5.47;;;;;;;34.93;37.43;97781.84;5011479;28;20491;-77
2021/08/15 11:13:33;;;;;;;5.85;5.13;;;;;;;34.91;38.10;97781.50;5013032;28;20053;-80
2021/08/15 11:16:20;;;;;;;5.65;5.15;;;;;;;34.46;39.10;97778.25;5012840;28;20021;-78
2021/08/15 11:19:07;;;;;;;6.20;5.22;;;;;;;33.86;39.93;97772.53;5011341;28;20026;-79
2021/08/15 11:22:10;;;;;;;7.60;5.40;;;;;;;34.30;39.44;97767.84;5013888;28;20064;-79
2021/08/15 11:24:45;;;;;;;6.07;5.28;;;;;;;34.24;39.61;97764.00;5012312;28;20030;-79
2021/08/15 11:27:16;;;;;;;6.63;5.43;;;;;;;34.10;39.89;97764.44;5017956;28;20028;-82
2021/08/15 11:29:44;;;;;;;7.80;5.57;;;;;;;34.13;40.20;97757.88;5013857;28;20033;-84
2021/08/15 11:32:17;;;;;;;7.22;5.63;;;;;;;34.38;39.69;97749.28;5014497;28;20537;-84